createdAt,value
2022-08-07T00:00:29.748Z,14.60
2022-08-07T00:02:56.901Z,14.60
2022-08-07T00:05:24.229Z,14.60
2022-08-07T00:08:00.190Z,14.60
2022-08-07T00:10:30.496Z,14.70
2022-08-07T00:13:01.114Z,14.60
2022-08-07T00:15:36.208Z,14.60
2022-08-07T00:18:18.812Z,14.60
2022-08-07T00:20:49.173Z,14.60
2022-08-07T00:23:16.191Z,14.40
2022-08-07T00:25:45.828Z,14.40
2022-08-07T00:28:21.980Z,14.40
2022-08-07T00:30:48.802Z,14.30
2022-08-07T00:33:15.976Z,14.30
2022-08-07T00:35:47.730Z,14.30
2022-08-07T00:38:16.436Z,14.40
2022-08-07T00:40:58.369Z,14.30
2022-08-07T00:44:01.017Z,14.30
2022-08-07T00:46:11.763Z,14.20
2022-08-07T00:48:42.248Z,14.00
2022-08-07T00:51:09.546Z,14.00
2022-08-07T00:53:39.387Z,14.10
2022-08-07T00:56:17.291Z,14.10
2022-08-07T00:58:47.291Z,14.10
2022-08-07T01:01:17.197Z,14.10
2022-08-07T01:03:56.941Z,14.10
2022-08-07T01:06:29.220Z,14.00
2022-08-07T01:08:58.545Z,14.00
2022-08-07T01:12:23.438Z,14.00
2022-08-07T01:14:15.396Z,14.00
2022-08-07T01:16:43.170Z,14.00
2022-08-07T01:19:18.285Z,13.90
2022-08-07T01:21:47.055Z,13.90
2022-08-07T01:24:14.381Z,13.70
2022-08-07T01:26:51.530Z,13.70
2022-08-07T01:29:20.166Z,13.70
2022-08-07T01:31:49.808Z,13.60
2022-08-07T01:34:18.617Z,13.50
2022-08-07T01:36:52.635Z,13.50
2022-08-07T01:39:40.630Z,13.50
2022-08-07T01:42:38.669Z,13.50
2022-08-07T01:45:17.923Z,13.50
2022-08-07T01:48:29.296Z,13.50
2022-08-07T01:50:36.717Z,13.50
2022-08-07T01:53:08.772Z,13.40
2022-08-07T01:55:37.911Z,13.40
2022-08-07T01:58:27.326Z,13.40
2022-08-07T02:01:09.542Z,13.40
2022-08-07T02:03:48.660Z,13.40
2022-08-07T02:06:31.458Z,13.40
2022-08-07T02:09:04.595Z,13.20
2022-08-07T02:12:02.719Z,13.20
2022-08-07T02:14:40.387Z,13.20
2022-08-07T02:17:13.551Z,13.20
2022-08-07T02:20:07.525Z,13.10
2022-08-07T02:22:40.982Z,13.00
2022-08-07T02:25:13.860Z,13.10
2022-08-07T02:27:54.245Z,13.10
2022-08-07T02:30:22.679Z,13.00
2022-08-07T02:33:00.587Z,12.90
2022-08-07T02:36:30.728Z,12.90
2022-08-07T02:38:31.984Z,12.90
2022-08-07T02:41:01.281Z,12.90
2022-08-07T02:43:32.901Z,12.80
2022-08-07T02:46:02.476Z,12.90
2022-08-07T02:48:32.128Z,12.80
2022-08-07T02:51:05.016Z,12.90
2022-08-07T02:53:34.076Z,12.80
2022-08-07T02:56:13.139Z,12.80
2022-08-07T02:58:49.538Z,12.80
2022-08-07T03:01:19.182Z,12.80
2022-08-07T03:04:12.838Z,12.70
2022-08-07T03:06:44.730Z,12.80
2022-08-07T03:09:13.791Z,12.90
2022-08-07T03:11:52.556Z,12.80
2022-08-07T03:14:28.121Z,12.80
2022-08-07T03:16:56.229Z,12.70
2022-08-07T03:19:23.318Z,12.60
2022-08-07T03:21:51.264Z,12.50
2022-08-07T03:24:25.965Z,12.50
2022-08-07T03:26:59.526Z,12.50
2022-08-07T03:29:37.955Z,12.50
2022-08-07T03:32:13.223Z,12.60
2022-08-07T03:34:47.381Z,12.60
2022-08-07T03:37:32.517Z,12.50
2022-08-07T03:40:14.930Z,12.60
2022-08-07T03:42:43.374Z,12.60
2022-08-07T03:45:12.772Z,12.50
2022-08-07T03:48:00.831Z,12.50
2022-08-07T03:50:29.102Z,12.50
2022-08-07T03:52:58.200Z,12.60
2022-08-07T03:55:52.905Z,12.60
2022-08-07T03:59:05.520Z,12.60
2022-08-07T04:01:00.426Z,12.70
2022-08-07T04:03:49.878Z,12.70
2022-08-07T04:06:37.257Z,12.60
2022-08-07T04:09:04.115Z,12.80
2022-08-07T04:12:25.107Z,12.80
2022-08-07T04:14:37.473Z,12.80
2022-08-07T04:17:21.255Z,12.80
2022-08-07T04:19:54.219Z,12.80
2022-08-07T04:22:29.243Z,12.80
2022-08-07T04:25:01.622Z,12.80
2022-08-07T04:27:39.247Z,12.80
2022-08-07T04:30:35.485Z,12.70
2022-08-07T04:33:10.228Z,12.70
2022-08-07T04:35:50.507Z,12.50
2022-08-07T04:38:21.769Z,12.30
2022-08-07T04:40:51.966Z,12.30
2022-08-07T04:43:53.488Z,12.40
2022-08-07T04:46:25.700Z,12.50
2022-08-07T04:49:17.859Z,12.50
2022-08-07T04:51:52.488Z,12.60
2022-08-07T04:54:34.653Z,12.70
2022-08-07T04:58:14.029Z,12.60
2022-08-07T05:00:12.489Z,12.60
2022-08-07T05:02:55.335Z,12.60
2022-08-07T05:05:51.778Z,12.70
2022-08-07T05:08:59.850Z,12.70
2022-08-07T05:11:24.331Z,12.70
2022-08-07T05:14:53.753Z,12.80
2022-08-07T05:16:52.701Z,12.90
2022-08-07T05:19:20.842Z,13.00
2022-08-07T05:22:01.940Z,13.00
2022-08-07T05:24:39.723Z,13.10
2022-08-07T05:27:18.403Z,13.10
2022-08-07T05:29:56.579Z,13.20
2022-08-07T05:32:26.306Z,13.30
2022-08-07T05:34:53.811Z,13.40
2022-08-07T05:37:25.062Z,13.50
2022-08-07T05:40:06.393Z,13.50
2022-08-07T05:42:55.565Z,13.60
2022-08-07T05:45:26.127Z,13.70
2022-08-07T05:48:13.026Z,13.70
2022-08-07T05:50:44.577Z,13.80
2022-08-07T05:54:12.227Z,14.00
2022-08-07T05:56:05.710Z,14.20
2022-08-07T05:58:37.629Z,14.30
2022-08-07T06:01:10.811Z,14.30
2022-08-07T06:03:56.929Z,14.40
2022-08-07T06:06:29.757Z,14.50
2022-08-07T06:09:04.815Z,14.60
2022-08-07T06:11:35.119Z,14.70
2022-08-07T06:14:12.854Z,14.80
2022-08-07T06:16:56.158Z,14.90
2022-08-07T06:19:47.924Z,14.90
2022-08-07T06:22:23.267Z,15.10
2022-08-07T06:25:03.295Z,15.20
2022-08-07T06:27:44.333Z,15.30
2022-08-07T06:30:31.799Z,15.40
2022-08-07T06:33:05.068Z,15.50
2022-08-07T06:35:45.578Z,15.70
2022-08-07T06:38:20.181Z,15.80
2022-08-07T06:40:50.106Z,16.00
2022-08-07T06:43:21.443Z,16.10
2022-08-07T06:46:05.302Z,16.30
2022-08-07T06:48:38.706Z,16.40
2022-08-07T06:51:10.799Z,16.40
2022-08-07T06:55:29.694Z,16.40
2022-08-07T06:56:49.783Z,16.50
2022-08-07T07:00:12.603Z,16.80
2022-08-07T07:02:48.818Z,16.90
2022-08-07T07:05:12.886Z,16.80
2022-08-07T07:07:59.183Z,16.90
2022-08-07T07:10:31.306Z,16.80
2022-08-07T07:13:07.851Z,17.00
2022-08-07T07:15:41.165Z,17.10
2022-08-07T07:18:14.124Z,17.10
2022-08-07T07:20:56.749Z,17.30
2022-08-07T07:24:06.250Z,17.20
2022-08-07T07:26:34.045Z,17.20
2022-08-07T07:29:40.538Z,17.30
2022-08-07T07:31:55.318Z,17.40
2022-08-07T07:34:31.148Z,17.60
2022-08-07T07:37:05.405Z,17.60
2022-08-07T07:39:54.814Z,17.80
2022-08-07T07:42:32.584Z,18.00
2022-08-07T07:45:01.853Z,18.10
2022-08-07T07:47:30.025Z,18.20
2022-08-07T07:50:29.605Z,18.40
2022-08-07T07:52:58.244Z,18.50
2022-08-07T07:55:37.160Z,18.50
2022-08-07T07:58:05.043Z,18.60
2022-08-07T08:00:34.444Z,18.60
2022-08-07T08:03:16.885Z,18.80
2022-08-07T08:06:02.796Z,18.90
2022-08-07T08:08:34.236Z,19.20
2022-08-07T08:11:03.812Z,19.30
2022-08-07T08:13:33.300Z,19.50
2022-08-07T08:16:19.625Z,19.50
2022-08-07T08:18:54.415Z,19.60
2022-08-07T08:22:00.686Z,19.60
2022-08-07T08:24:47.631Z,19.70
2022-08-07T08:27:22.655Z,19.70
2022-08-07T08:29:54.598Z,19.60
2022-08-07T08:32:25.311Z,19.60
2022-08-07T08:34:53.797Z,19.50
2022-08-07T08:38:00.738Z,19.60
2022-08-07T08:40:12.223Z,19.70
2022-08-07T08:42:45.015Z,19.70
2022-08-07T08:45:15.298Z,19.90
2022-08-07T08:48:00.815Z,19.80
2022-08-07T08:50:39.099Z,20.00
2022-08-07T08:53:14.783Z,20.00
2022-08-07T08:55:54.394Z,20.10
2022-08-07T08:58:40.581Z,20.40
2022-08-07T09:01:29.974Z,20.50
2022-08-07T09:04:25.884Z,20.60
2022-08-07T09:06:55.331Z,20.40
2022-08-07T09:09:36.602Z,20.70
2022-08-07T09:12:31.284Z,20.80
2022-08-07T09:14:58.765Z,20.80
2022-08-07T09:17:59.716Z,20.90
2022-08-07T09:20:35.200Z,21.10
2022-08-07T09:24:30.646Z,21.30
2022-08-07T09:26:01.500Z,21.30
2022-08-07T09:30:01.600Z,21.50
2022-08-07T09:31:48.645Z,21.60
2022-08-07T09:34:34.882Z,21.50
2022-08-07T09:37:48.482Z,21.70
2022-08-07T09:40:34.428Z,21.90
2022-08-07T09:43:08.385Z,21.90
2022-08-07T09:47:50.341Z,21.80
2022-08-07T09:48:56.119Z,21.60
2022-08-07T09:52:15.631Z,21.60
2022-08-07T09:54:29.933Z,21.60
2022-08-07T09:57:06.156Z,21.70
2022-08-07T10:00:00.686Z,21.70
2022-08-07T10:02:55.501Z,21.80
2022-08-07T10:05:59.996Z,21.90
2022-08-07T10:08:27.832Z,22.10
2022-08-07T10:11:58.904Z,22.30
2022-08-07T10:14:11.252Z,22.40
2022-08-07T10:16:38.002Z,22.70
2022-08-07T10:19:22.262Z,22.80
2022-08-07T10:22:15.728Z,22.90
2022-08-07T10:24:40.203Z,22.70
2022-08-07T10:27:30.012Z,22.90
2022-08-07T10:30:06.392Z,23.40
2022-08-07T10:32:52.252Z,23.60
2022-08-07T10:35:53.563Z,23.40
2022-08-07T10:38:47.910Z,23.50
2022-08-07T10:41:52.146Z,23.60
2022-08-07T10:44:14.801Z,23.80
2022-08-07T10:46:46.861Z,23.90
2022-08-07T10:49:49.398Z,24.00
2022-08-07T10:52:36.621Z,24.30
2022-08-07T10:55:37.833Z,24.70
2022-08-07T10:58:12.733Z,24.20
2022-08-07T11:00:50.393Z,24.10
2022-08-07T11:03:52.551Z,24.40
2022-08-07T11:06:26.866Z,24.60
2022-08-07T11:08:56.831Z,24.70
2022-08-07T11:11:35.941Z,24.50
2022-08-07T11:14:44.046Z,24.80
2022-08-07T11:17:09.128Z,24.70
2022-08-07T11:19:39.126Z,24.60
2022-08-07T11:22:26.716Z,24.60
2022-08-07T11:24:57.887Z,24.60
2022-08-07T11:28:00.918Z,24.80
2022-08-07T11:30:18.346Z,25.10
2022-08-07T11:32:52.850Z,25.00
2022-08-07T11:35:29.252Z,24.70
2022-08-07T11:38:12.908Z,24.80
2022-08-07T11:41:28.385Z,24.80
2022-08-07T11:44:18.728Z,24.60
2022-08-07T11:46:48.802Z,24.80
2022-08-07T11:49:51.154Z,25.40
2022-08-07T11:52:29.413Z,25.40
2022-08-07T11:55:02.659Z,24.80
2022-08-07T11:57:59.886Z,24.90
2022-08-07T12:00:53.631Z,25.30
2022-08-07T12:03:45.577Z,25.10
2022-08-07T12:06:37.673Z,25.70
2022-08-07T12:09:16.787Z,26.20
2022-08-07T12:12:09.626Z,25.40
2022-08-07T12:15:00.126Z,25.00
2022-08-07T12:17:33.643Z,25.10
2022-08-07T12:20:20.836Z,24.80
2022-08-07T12:23:14.270Z,25.20
2022-08-07T12:26:22.883Z,26.00
2022-08-07T12:28:58.959Z,26.00
2022-08-07T12:31:52.367Z,26.50
2022-08-07T12:34:22.797Z,26.70
2022-08-07T12:36:53.359Z,26.20
2022-08-07T12:39:42.135Z,25.40
2022-08-07T12:42:10.269Z,25.00
2022-08-07T12:44:42.912Z,25.50
2022-08-07T12:47:21.746Z,25.80
2022-08-07T12:50:05.163Z,25.60
2022-08-07T12:52:52.403Z,25.80
2022-08-07T12:55:41.179Z,26.50
2022-08-07T12:58:21.539Z,27.10
2022-08-07T13:01:07.801Z,27.20
2022-08-07T13:03:56.151Z,27.00
2022-08-07T13:07:00.017Z,27.40
2022-08-07T13:10:28.474Z,28.00
2022-08-07T13:12:54.513Z,28.30
2022-08-07T13:15:29.720Z,27.90
2022-08-07T13:18:02.320Z,27.50
2022-08-07T13:20:51.082Z,27.20
2022-08-07T13:24:01.601Z,26.60
2022-08-07T13:26:33.891Z,26.00
2022-08-07T13:29:03.413Z,26.70
2022-08-07T13:31:46.278Z,27.10
2022-08-07T13:34:35.554Z,27.20
2022-08-07T13:37:20.746Z,28.00
2022-08-07T13:40:36.372Z,28.30
2022-08-07T13:42:56.508Z,28.40
2022-08-07T13:46:12.454Z,28.00
2022-08-07T13:48:27.745Z,26.40
2022-08-07T13:51:02.139Z,25.20
2022-08-07T13:54:00.064Z,25.50
2022-08-07T13:56:35.739Z,26.00
2022-08-07T13:59:17.385Z,27.10
2022-08-07T14:02:08.401Z,28.20
2022-08-07T14:04:49.226Z,28.60
2022-08-07T14:07:18.478Z,28.60
2022-08-07T14:10:02.192Z,28.90
2022-08-07T14:12:53.998Z,29.30
2022-08-07T14:15:41.858Z,29.10
2022-08-07T14:18:29.762Z,28.80
2022-08-07T14:21:08.441Z,28.80
2022-08-07T14:24:02.050Z,28.80
2022-08-07T14:26:32.418Z,29.60
2022-08-07T14:29:08.509Z,29.90
2022-08-07T14:31:57.799Z,29.80
2022-08-07T14:34:29.517Z,30.20
2022-08-07T14:36:56.713Z,30.60
2022-08-07T14:40:17.119Z,30.20
2022-08-07T14:42:20.437Z,29.50
2022-08-07T14:44:59.835Z,29.90
2022-08-07T14:47:46.223Z,30.50
2022-08-07T14:50:19.097Z,30.10
2022-08-07T14:52:47.811Z,30.20
2022-08-07T14:55:19.877Z,30.50
2022-08-07T14:57:58.424Z,31.00
2022-08-07T15:00:31.093Z,31.30
2022-08-07T15:02:59.135Z,30.60
2022-08-07T15:05:27.547Z,30.00
2022-08-07T15:07:58.246Z,29.60
2022-08-07T15:10:29.615Z,29.90
2022-08-07T15:13:02.581Z,30.20
2022-08-07T15:15:38.509Z,29.50
2022-08-07T15:18:34.078Z,29.40
2022-08-07T15:27:05.201Z,29.80
2022-08-07T15:30:08.496Z,30.00
2022-08-07T15:32:38.937Z,30.40
2022-08-07T15:35:06.697Z,29.80
2022-08-07T15:38:04.341Z,29.30
2022-08-07T15:40:33.825Z,28.80
2022-08-07T15:43:53.082Z,28.10
2022-08-07T15:46:32.172Z,27.40
2022-08-07T15:49:03.503Z,26.60
2022-08-07T15:54:17.991Z,25.70
2022-08-07T15:56:46.073Z,25.40
2022-08-07T15:59:20.216Z,25.20
2022-08-07T16:02:07.363Z,24.90
2022-08-07T16:04:37.782Z,24.50
2022-08-07T16:07:05.773Z,24.40
2022-08-07T16:09:55.213Z,24.30
2022-08-07T16:12:35.120Z,24.20
2022-08-07T16:15:57.380Z,24.10
2022-08-07T16:18:13.259Z,24.00
2022-08-07T16:22:01.210Z,23.90
2022-08-07T16:24:33.950Z,23.80
2022-08-07T16:27:05.949Z,23.60
2022-08-07T16:30:29.523Z,23.60
2022-08-07T16:34:02.135Z,23.80
2022-08-07T16:35:56.968Z,23.60
2022-08-07T16:39:01.181Z,23.60
2022-08-07T16:41:28.456Z,23.60
2022-08-07T16:44:46.335Z,23.50
2022-08-07T16:47:53.041Z,23.50
2022-08-07T16:50:36.124Z,23.40
2022-08-07T16:54:02.198Z,23.40
2022-08-07T16:56:15.111Z,23.20
2022-08-07T16:59:14.605Z,23.20
2022-08-07T17:01:56.583Z,23.20
2022-08-07T17:04:24.812Z,23.10
2022-08-07T17:07:02.880Z,23.10
2022-08-07T17:10:06.535Z,23.20
2022-08-07T17:12:44.183Z,23.10
2022-08-07T17:15:15.693Z,23.20
2022-08-07T17:17:49.101Z,23.10
2022-08-07T17:20:22.748Z,23.10
2022-08-07T17:22:56.820Z,23.20
2022-08-07T17:25:45.807Z,23.10
2022-08-07T17:28:19.473Z,23.00
2022-08-07T17:31:00.526Z,22.90
2022-08-07T17:34:32.894Z,22.90
2022-08-07T17:36:57.423Z,22.80
2022-08-07T17:39:58.601Z,22.80
2022-08-07T17:42:26.882Z,22.70
2022-08-07T17:44:57.011Z,22.70
2022-08-07T17:47:43.743Z,22.60
2022-08-07T17:50:19.363Z,22.60
2022-08-07T17:52:49.490Z,22.70
2022-08-07T17:56:00.819Z,22.60
2022-08-07T17:58:32.701Z,22.60
2022-08-07T18:01:02.664Z,22.50
2022-08-07T18:04:06.847Z,22.50
2022-08-07T18:06:43.029Z,22.50
2022-08-07T18:09:16.316Z,22.40
2022-08-07T18:12:06.990Z,22.30
2022-08-07T18:14:50.854Z,22.30
2022-08-07T18:18:46.258Z,22.20
2022-08-07T18:21:12.798Z,22.10
2022-08-07T18:23:43.004Z,22.00
2022-08-07T18:26:16.406Z,22.00
2022-08-07T18:29:03.524Z,22.00
2022-08-07T18:31:38.902Z,22.00
2022-08-07T18:34:37.078Z,21.90
2022-08-07T18:37:14.633Z,21.90
2022-08-07T18:40:40.597Z,21.80
2022-08-07T18:43:06.343Z,21.70
2022-08-07T18:46:21.810Z,21.50
2022-08-07T18:50:05.879Z,21.40
2022-08-07T18:52:33.483Z,21.20
2022-08-07T18:54:31.142Z,21.10
2022-08-07T18:57:31.001Z,21.10
2022-08-07T18:59:59.442Z,21.00
2022-08-07T19:02:50.906Z,20.90
2022-08-07T19:06:02.050Z,20.80
2022-08-07T19:08:37.153Z,20.80
2022-08-07T19:11:36.120Z,20.60
2022-08-07T19:14:00.709Z,20.60
2022-08-07T19:17:06.895Z,20.50
2022-08-07T19:19:39.771Z,20.40
2022-08-07T19:22:11.268Z,20.40
2022-08-07T19:24:48.841Z,20.30
2022-08-07T19:28:58.224Z,20.20
2022-08-07T19:31:03.861Z,20.20
2022-08-07T19:33:10.047Z,20.10
2022-08-07T19:35:40.368Z,20.10
2022-08-07T19:38:15.132Z,20.00
2022-08-07T19:40:49.647Z,19.90
2022-08-07T19:43:21.581Z,19.80
2022-08-07T19:46:10.033Z,19.80
2022-08-07T19:48:43.035Z,19.70
2022-08-07T19:51:20.172Z,19.70
2022-08-07T19:54:44.616Z,19.70
2022-08-07T19:57:52.071Z,19.60
2022-08-07T19:59:39.746Z,19.50
2022-08-07T20:02:15.480Z,19.40
2022-08-07T20:04:49.351Z,19.30
2022-08-07T20:07:23.996Z,19.30
2022-08-07T20:10:35.617Z,19.20
2022-08-07T20:12:53.439Z,19.10
2022-08-07T20:15:24.636Z,19.10
2022-08-07T20:18:03.502Z,19.10
2022-08-07T20:20:30.964Z,19.10
2022-08-07T20:23:01.368Z,19.00
2022-08-07T20:25:40.342Z,19.00
2022-08-07T20:28:11.878Z,18.90
2022-08-07T20:30:46.860Z,18.90
2022-08-07T20:33:36.996Z,18.90
2022-08-07T20:36:04.174Z,18.90
2022-08-07T20:38:33.265Z,18.70
2022-08-07T20:41:03.618Z,18.60
2022-08-07T20:43:32.715Z,18.40
2022-08-07T20:46:25.746Z,18.40
2022-08-07T20:49:54.105Z,18.30
2022-08-07T20:51:40.663Z,18.30
2022-08-07T20:54:29.742Z,18.30
2022-08-07T20:57:00.342Z,18.40
2022-08-07T21:00:06.636Z,18.40
2022-08-07T21:02:38.361Z,18.30
2022-08-07T21:05:16.081Z,18.10
2022-08-07T21:07:49.458Z,18.00
2022-08-07T21:10:29.733Z,18.00
2022-08-07T21:12:59.689Z,17.90
2022-08-07T21:15:57.977Z,17.90
2022-08-07T21:18:27.818Z,17.90
2022-08-07T21:20:57.516Z,17.80
2022-08-07T21:23:42.706Z,17.60
2022-08-07T21:26:25.922Z,17.60
2022-08-07T21:28:58.105Z,17.60
2022-08-07T21:31:49.523Z,17.60
2022-08-07T21:34:32.319Z,17.50
2022-08-07T21:37:02.499Z,17.40
2022-08-07T21:39:45.090Z,17.30
2022-08-07T21:42:49.545Z,17.20
2022-08-07T21:46:04.810Z,17.10
2022-08-07T21:48:28.559Z,17.10
2022-08-07T21:51:06.804Z,17.10
2022-08-07T21:53:46.521Z,17.20
2022-08-07T21:56:49.585Z,17.20
2022-08-07T21:59:16.739Z,17.10
2022-08-07T22:02:07.647Z,17.10
2022-08-07T22:04:52.554Z,16.90
2022-08-07T22:07:31.420Z,16.70
2022-08-07T22:10:04.090Z,16.60
2022-08-07T22:12:37.608Z,16.60
2022-08-07T22:16:39.392Z,16.60
2022-08-07T22:18:04.158Z,16.70
2022-08-07T22:20:33.819Z,16.60
2022-08-07T22:23:21.753Z,16.50
2022-08-07T22:25:56.825Z,16.30
2022-08-07T22:28:42.584Z,16.30
2022-08-07T22:31:45.078Z,16.30
2022-08-07T22:34:15.017Z,16.30
2022-08-07T22:36:46.322Z,16.30
2022-08-07T22:39:51.816Z,16.20
2022-08-07T22:42:54.047Z,16.10
2022-08-07T22:46:04.516Z,16.10
2022-08-07T22:48:13.532Z,15.90
2022-08-07T22:51:06.926Z,15.90
2022-08-07T22:54:07.672Z,15.90
2022-08-07T22:56:29.911Z,15.80
2022-08-07T22:59:17.706Z,15.80
2022-08-07T23:01:59.137Z,15.70
2022-08-07T23:04:30.936Z,15.60
2022-08-07T23:07:41.324Z,15.60
2022-08-07T23:10:37.580Z,15.60
2022-08-07T23:12:55.483Z,15.50
2022-08-07T23:16:06.092Z,15.50
2022-08-07T23:18:32.036Z,15.50
2022-08-07T23:21:05.662Z,15.50
2022-08-07T23:24:05.608Z,15.50
2022-08-07T23:26:54.720Z,15.40
2022-08-07T23:29:43.847Z,15.20
2022-08-07T23:34:20.965Z,15.20
2022-08-07T23:35:20.854Z,15.30
2022-08-07T23:38:00.318Z,15.20
2022-08-07T23:40:49.247Z,15.20
2022-08-07T23:43:20.511Z,15.10
2022-08-07T23:46:10.371Z,15.00
2022-08-07T23:48:58.820Z,15.00
2022-08-07T23:53:00.014Z,15.00
2022-08-07T23:54:44.389Z,15.00
2022-08-07T23:57:13.337Z,14.90
